sensor_id;sensor_type;location;lat;lon;timestamp;temperature;humidity
1988;DHT22;12775;46.994;15.498;2024-01-27T00:02:21;5.30;85.00
1988;DHT22;12775;46.994;15.498;2024-01-27T00:04:48;5.50;80.80
1988;DHT22;12775;46.994;15.498;2024-01-27T00:07:15;5.90;78.70
1988;DHT22;12775;46.994;15.498;2024-01-27T00:09:43;5.90;78.90
1988;DHT22;12775;46.994;15.498;2024-01-27T00:12:10;6.10;75.80
1988;DHT22;12775;46.994;15.498;2024-01-27T00:14:38;6.10;76.30
1988;DHT22;12775;46.994;15.498;2024-01-27T00:17:06;6.10;75.80
1988;DHT22;12775;46.994;15.498;2024-01-27T00:19:33;6.20;75.90
1988;DHT22;12775;46.994;15.498;2024-01-27T00:22:00;6.20;74.40
1988;DHT22;12775;46.994;15.498;2024-01-27T00:24:28;6.30;74.20
1988;DHT22;12775;46.994;15.498;2024-01-27T00:26:56;6.30;73.20
1988;DHT22;12775;46.994;15.498;2024-01-27T00:29:23;6.30;74.00
1988;DHT22;12775;46.994;15.498;2024-01-27T00:31:51;6.40;72.30
1988;DHT22;12775;46.994;15.498;2024-01-27T00:34:18;6.40;72.30
1988;DHT22;12775;46.994;15.498;2024-01-27T00:36:45;6.40;72.40
1988;DHT22;12775;46.994;15.498;2024-01-27T00:39:13;6.50;72.00
1988;DHT22;12775;46.994;15.498;2024-01-27T00:41:40;6.50;71.50
1988;DHT22;12775;46.994;15.498;2024-01-27T00:44:07;6.60;70.00
1988;DHT22;12775;46.994;15.498;2024-01-27T00:46:35;6.60;70.20
1988;DHT22;12775;46.994;15.498;2024-01-27T00:49:02;6.70;70.80
1988;DHT22;12775;46.994;15.498;2024-01-27T00:51:29;6.70;69.70
1988;DHT22;12775;46.994;15.498;2024-01-27T00:53:57;6.70;68.50
1988;DHT22;12775;46.994;15.498;2024-01-27T00:56:24;6.80;68.40
1988;DHT22;12775;46.994;15.498;2024-01-27T00:58:51;6.80;68.30
1988;DHT22;12775;46.994;15.498;2024-01-27T01:01:17;6.80;67.20
1988;DHT22;12775;46.994;15.498;2024-01-27T01:03:44;6.80;68.30
1988;DHT22;12775;46.994;15.498;2024-01-27T01:06:11;6.90;68.10
1988;DHT22;12775;46.994;15.498;2024-01-27T01:08:39;6.90;66.20
1988;DHT22;12775;46.994;15.498;2024-01-27T01:11:06;6.90;65.50
1988;DHT22;12775;46.994;15.498;2024-01-27T01:13:34;6.90;66.50
1988;DHT22;12775;46.994;15.498;2024-01-27T01:16:02;7.00;66.60
1988;DHT22;12775;46.994;15.498;2024-01-27T01:18:28;7.00;66.80
1988;DHT22;12775;46.994;15.498;2024-01-27T01:20:55;7.00;66.80
1988;DHT22;12775;46.994;15.498;2024-01-27T01:23:21;7.00;66.90
1988;DHT22;12775;46.994;15.498;2024-01-27T01:25:49;7.00;66.50
1988;DHT22;12775;46.994;15.498;2024-01-27T01:28:16;7.00;65.80
1988;DHT22;12775;46.994;15.498;2024-01-27T01:30:44;6.90;66.70
1988;DHT22;12775;46.994;15.498;2024-01-27T01:33:10;6.90;66.20
1988;DHT22;12775;46.994;15.498;2024-01-27T01:35:37;6.90;64.80
1988;DHT22;12775;46.994;15.498;2024-01-27T01:38:04;6.90;65.40
1988;DHT22;12775;46.994;15.498;2024-01-27T01:40:30;7.00;64.30
1988;DHT22;12775;46.994;15.498;2024-01-27T01:42:58;7.00;64.50
1988;DHT22;12775;46.994;15.498;2024-01-27T01:45:24;7.00;64.50
1988;DHT22;12775;46.994;15.498;2024-01-27T01:47:51;7.00;64.50
1988;DHT22;12775;46.994;15.498;2024-01-27T01:50:19;7.00;62.90
1988;DHT22;12775;46.994;15.498;2024-01-27T01:52:47;7.00;64.50
1988;DHT22;12775;46.994;15.498;2024-01-27T01:55:14;7.10;65.10
1988;DHT22;12775;46.994;15.498;2024-01-27T01:57:40;7.10;65.10
1988;DHT22;12775;46.994;15.498;2024-01-27T02:00:07;7.10;62.60
1988;DHT22;12775;46.994;15.498;2024-01-27T02:02:34;7.10;62.30
1988;DHT22;12775;46.994;15.498;2024-01-27T02:05:01;7.10;62.70
1988;DHT22;12775;46.994;15.498;2024-01-27T02:07:29;7.10;60.70
1988;DHT22;12775;46.994;15.498;2024-01-27T02:09:55;7.10;60.50
1988;DHT22;12775;46.994;15.498;2024-01-27T02:12:22;7.00;60.10
1988;DHT22;12775;46.994;15.498;2024-01-27T02:14:49;7.00;60.40
1988;DHT22;12775;46.994;15.498;2024-01-27T02:17:15;7.00;60.00
1988;DHT22;12775;46.994;15.498;2024-01-27T02:19:43;7.00;59.90
1988;DHT22;12775;46.994;15.498;2024-01-27T02:22:10;7.00;60.40
1988;DHT22;12775;46.994;15.498;2024-01-27T02:24:37;7.10;60.70
1988;DHT22;12775;46.994;15.498;2024-01-27T02:27:05;7.10;59.80
1988;DHT22;12775;46.994;15.498;2024-01-27T02:29:33;7.10;61.80
1988;DHT22;12775;46.994;15.498;2024-01-27T02:32:00;7.10;58.60
1988;DHT22;12775;46.994;15.498;2024-01-27T02:34:27;7.20;58.50
1988;DHT22;12775;46.994;15.498;2024-01-27T02:36:55;7.20;57.00
1988;DHT22;12775;46.994;15.498;2024-01-27T02:39:22;7.20;58.20
1988;DHT22;12775;46.994;15.498;2024-01-27T02:41:49;7.20;58.20
1988;DHT22;12775;46.994;15.498;2024-01-27T02:44:18;7.30;56.90
1988;DHT22;12775;46.994;15.498;2024-01-27T02:46:45;7.30;56.30
1988;DHT22;12775;46.994;15.498;2024-01-27T02:49:12;7.30;58.60
1988;DHT22;12775;46.994;15.498;2024-01-27T02:51:40;7.20;57.60
1988;DHT22;12775;46.994;15.498;2024-01-27T02:54:07;7.20;57.80
1988;DHT22;12775;46.994;15.498;2024-01-27T02:56:34;7.00;58.00
1988;DHT22;12775;46.994;15.498;2024-01-27T02:59:02;7.00;58.40
1988;DHT22;12775;46.994;15.498;2024-01-27T03:01:29;6.90;58.40
1988;DHT22;12775;46.994;15.498;2024-01-27T03:03:58;6.90;57.50
1988;DHT22;12775;46.994;15.498;2024-01-27T03:06:25;6.90;56.30
1988;DHT22;12775;46.994;15.498;2024-01-27T03:08:52;6.90;57.80
1988;DHT22;12775;46.994;15.498;2024-01-27T03:11:20;6.90;57.50
1988;DHT22;12775;46.994;15.498;2024-01-27T03:13:47;6.90;57.10
1988;DHT22;12775;46.994;15.498;2024-01-27T03:16:14;6.80;56.30
1988;DHT22;12775;46.994;15.498;2024-01-27T03:18:42;6.80;56.00
1988;DHT22;12775;46.994;15.498;2024-01-27T03:21:09;6.80;58.20
1988;DHT22;12775;46.994;15.498;2024-01-27T03:23:37;6.70;58.60
1988;DHT22;12775;46.994;15.498;2024-01-27T03:26:04;6.70;57.20
1988;DHT22;12775;46.994;15.498;2024-01-27T03:28:31;6.70;56.00
1988;DHT22;12775;46.994;15.498;2024-01-27T03:31:00;6.80;55.00
1988;DHT22;12775;46.994;15.498;2024-01-27T03:33:27;6.80;54.40
1988;DHT22;12775;46.994;15.498;2024-01-27T03:35:54;6.90;54.30
1988;DHT22;12775;46.994;15.498;2024-01-27T03:38:22;7.00;54.80
1988;DHT22;12775;46.994;15.498;2024-01-27T03:40:49;7.10;54.40
1988;DHT22;12775;46.994;15.498;2024-01-27T03:43:16;7.10;54.20
1988;DHT22;12775;46.994;15.498;2024-01-27T03:45:44;7.10;54.00
1988;DHT22;12775;46.994;15.498;2024-01-27T03:48:11;7.10;53.70
1988;DHT22;12775;46.994;15.498;2024-01-27T03:50:39;7.10;54.20
1988;DHT22;12775;46.994;15.498;2024-01-27T03:53:06;7.20;54.40
1988;DHT22;12775;46.994;15.498;2024-01-27T03:55:33;7.20;53.80
1988;DHT22;12775;46.994;15.498;2024-01-27T03:58:01;7.30;53.60
1988;DHT22;12775;46.994;15.498;2024-01-27T04:00:28;7.30;53.50
1988;DHT22;12775;46.994;15.498;2024-01-27T04:02:55;7.40;54.10
1988;DHT22;12775;46.994;15.498;2024-01-27T04:05:23;7.30;54.20
1988;DHT22;12775;46.994;15.498;2024-01-27T04:07:51;7.30;53.80
1988;DHT22;12775;46.994;15.498;2024-01-27T04:10:18;7.30;56.90
1988;DHT22;12775;46.994;15.498;2024-01-27T04:12:46;7.30;56.20
1988;DHT22;12775;46.994;15.498;2024-01-27T04:15:13;7.30;57.00
1988;DHT22;12775;46.994;15.498;2024-01-27T04:17:41;7.30;56.80
1988;DHT22;12775;46.994;15.498;2024-01-27T04:20:09;7.30;55.60
1988;DHT22;12775;46.994;15.498;2024-01-27T04:22:38;7.30;55.00
1988;DHT22;12775;46.994;15.498;2024-01-27T04:25:05;7.30;55.50
1988;DHT22;12775;46.994;15.498;2024-01-27T04:27:36;7.30;55.50
1988;DHT22;12775;46.994;15.498;2024-01-27T04:29:59;7.20;54.30
1988;DHT22;12775;46.994;15.498;2024-01-27T04:32:28;7.30;54.10
1988;DHT22;12775;46.994;15.498;2024-01-27T04:34:55;7.20;54.00
1988;DHT22;12775;46.994;15.498;2024-01-27T04:37:23;7.20;54.90
1988;DHT22;12775;46.994;15.498;2024-01-27T04:39:50;7.30;54.50
1988;DHT22;12775;46.994;15.498;2024-01-27T04:42:17;7.30;54.80
1988;DHT22;12775;46.994;15.498;2024-01-27T04:44:45;7.20;56.50
1988;DHT22;12775;46.994;15.498;2024-01-27T04:47:12;7.20;55.20
1988;DHT22;12775;46.994;15.498;2024-01-27T04:49:39;7.20;54.60
1988;DHT22;12775;46.994;15.498;2024-01-27T04:52:07;7.30;54.30
1988;DHT22;12775;46.994;15.498;2024-01-27T04:54:34;7.30;54.50
1988;DHT22;12775;46.994;15.498;2024-01-27T04:57:01;7.30;54.20
1988;DHT22;12775;46.994;15.498;2024-01-27T04:59:29;7.30;54.70
1988;DHT22;12775;46.994;15.498;2024-01-27T05:01:56;7.40;55.00
1988;DHT22;12775;46.994;15.498;2024-01-27T05:04:23;7.30;56.10
1988;DHT22;12775;46.994;15.498;2024-01-27T05:06:51;7.20;58.20
1988;DHT22;12775;46.994;15.498;2024-01-27T05:09:18;7.10;55.70
1988;DHT22;12775;46.994;15.498;2024-01-27T05:11:46;7.10;55.90
1988;DHT22;12775;46.994;15.498;2024-01-27T05:14:13;7.10;55.70
1988;DHT22;12775;46.994;15.498;2024-01-27T05:16:39;7.10;55.60
1988;DHT22;12775;46.994;15.498;2024-01-27T05:19:07;7.10;55.50
1988;DHT22;12775;46.994;15.498;2024-01-27T05:21:33;7.00;55.30
1988;DHT22;12775;46.994;15.498;2024-01-27T05:24:00;7.10;56.00
1988;DHT22;12775;46.994;15.498;2024-01-27T05:26:27;7.10;55.40
1988;DHT22;12775;46.994;15.498;2024-01-27T05:28:54;7.10;55.60
1988;DHT22;12775;46.994;15.498;2024-01-27T05:31:21;7.20;55.10
1988;DHT22;12775;46.994;15.498;2024-01-27T05:33:48;7.20;55.30
1988;DHT22;12775;46.994;15.498;2024-01-27T05:36:16;7.20;55.30
1988;DHT22;12775;46.994;15.498;2024-01-27T05:38:43;7.20;55.20
1988;DHT22;12775;46.994;15.498;2024-01-27T05:41:11;7.30;55.20
1988;DHT22;12775;46.994;15.498;2024-01-27T05:43:38;7.20;55.30
1988;DHT22;12775;46.994;15.498;2024-01-27T05:46:05;7.20;55.10
1988;DHT22;12775;46.994;15.498;2024-01-27T05:48:33;7.20;54.70
1988;DHT22;12775;46.994;15.498;2024-01-27T05:51:00;7.10;56.00
1988;DHT22;12775;46.994;15.498;2024-01-27T05:53:27;7.20;55.40
1988;DHT22;12775;46.994;15.498;2024-01-27T05:55:55;7.10;56.50
1988;DHT22;12775;46.994;15.498;2024-01-27T05:58:22;7.10;55.60
1988;DHT22;12775;46.994;15.498;2024-01-27T06:00:49;7.10;56.10
1988;DHT22;12775;46.994;15.498;2024-01-27T06:03:17;7.10;55.90
1988;DHT22;12775;46.994;15.498;2024-01-27T06:05:44;7.10;55.70
1988;DHT22;12775;46.994;15.498;2024-01-27T06:08:12;7.10;56.60
1988;DHT22;12775;46.994;15.498;2024-01-27T06:10:39;7.00;56.50
1988;DHT22;12775;46.994;15.498;2024-01-27T06:13:06;6.90;57.00
1988;DHT22;12775;46.994;15.498;2024-01-27T06:15:34;7.00;56.30
1988;DHT22;12775;46.994;15.498;2024-01-27T06:18:00;7.00;56.30
1988;DHT22;12775;46.994;15.498;2024-01-27T06:20:27;6.90;57.00
1988;DHT22;12775;46.994;15.498;2024-01-27T06:22:53;6.90;57.90
1988;DHT22;12775;46.994;15.498;2024-01-27T06:25:20;6.90;57.70
1988;DHT22;12775;46.994;15.498;2024-01-27T06:27:48;6.70;58.10
1988;DHT22;12775;46.994;15.498;2024-01-27T06:30:16;6.70;58.20
1988;DHT22;12775;46.994;15.498;2024-01-27T06:32:43;6.60;57.50
1988;DHT22;12775;46.994;15.498;2024-01-27T06:35:10;6.60;57.60
1988;DHT22;12775;46.994;15.498;2024-01-27T06:37:38;6.60;57.50
1988;DHT22;12775;46.994;15.498;2024-01-27T06:40:06;6.50;58.30
1988;DHT22;12775;46.994;15.498;2024-01-27T06:42:33;6.40;58.10
1988;DHT22;12775;46.994;15.498;2024-01-27T06:44:59;6.40;58.50
1988;DHT22;12775;46.994;15.498;2024-01-27T06:47:27;6.30;58.60
1988;DHT22;12775;46.994;15.498;2024-01-27T06:49:54;6.40;59.50
1988;DHT22;12775;46.994;15.498;2024-01-27T06:52:21;6.40;58.90
1988;DHT22;12775;46.994;15.498;2024-01-27T06:54:49;6.40;60.20
1988;DHT22;12775;46.994;15.498;2024-01-27T06:57:22;6.20;59.10
1988;DHT22;12775;46.994;15.498;2024-01-27T06:59:50;6.10;59.60
1988;DHT22;12775;46.994;15.498;2024-01-27T07:02:16;6.10;59.60
1988;DHT22;12775;46.994;15.498;2024-01-27T07:04:44;6.30;57.30
1988;DHT22;12775;46.994;15.498;2024-01-27T07:07:11;6.30;59.50
1988;DHT22;12775;46.994;15.498;2024-01-27T07:09:38;6.30;61.40
1988;DHT22;12775;46.994;15.498;2024-01-27T07:12:06;6.30;60.90
1988;DHT22;12775;46.994;15.498;2024-01-27T07:14:34;6.30;61.50
1988;DHT22;12775;46.994;15.498;2024-01-27T07:17:01;6.30;59.80
1988;DHT22;12775;46.994;15.498;2024-01-27T07:19:27;6.30;59.70
1988;DHT22;12775;46.994;15.498;2024-01-27T07:21:54;6.40;59.60
1988;DHT22;12775;46.994;15.498;2024-01-27T07:24:21;6.40;59.60
1988;DHT22;12775;46.994;15.498;2024-01-27T07:26:48;6.50;61.50
1988;DHT22;12775;46.994;15.498;2024-01-27T07:29:15;6.50;62.50
1988;DHT22;12775;46.994;15.498;2024-01-27T07:31:42;6.60;63.60
1988;DHT22;12775;46.994;15.498;2024-01-27T07:34:10;6.60;62.70
1988;DHT22;12775;46.994;15.498;2024-01-27T07:36:37;6.70;62.60
1988;DHT22;12775;46.994;15.498;2024-01-27T07:39:04;6.80;62.60
1988;DHT22;12775;46.994;15.498;2024-01-27T07:41:32;6.80;62.50
1988;DHT22;12775;46.994;15.498;2024-01-27T07:44:14;6.90;62.30
1988;DHT22;12775;46.994;15.498;2024-01-27T07:46:41;7.00;61.80
1988;DHT22;12775;46.994;15.498;2024-01-27T07:49:09;6.90;61.30
1988;DHT22;12775;46.994;15.498;2024-01-27T07:51:36;6.90;60.50
1988;DHT22;12775;46.994;15.498;2024-01-27T07:54:03;7.00;62.00
1988;DHT22;12775;46.994;15.498;2024-01-27T07:56:31;7.00;63.20
1988;DHT22;12775;46.994;15.498;2024-01-27T07:58:58;7.10;59.00
1988;DHT22;12775;46.994;15.498;2024-01-27T08:01:25;7.10;62.20
1988;DHT22;12775;46.994;15.498;2024-01-27T08:03:53;7.20;62.40
1988;DHT22;12775;46.994;15.498;2024-01-27T08:06:27;7.30;63.20
1988;DHT22;12775;46.994;15.498;2024-01-27T08:08:49;7.40;63.20
1988;DHT22;12775;46.994;15.498;2024-01-27T08:11:17;7.50;63.30
1988;DHT22;12775;46.994;15.498;2024-01-27T08:13:44;7.50;62.30
1988;DHT22;12775;46.994;15.498;2024-01-27T08:16:12;7.50;60.80
1988;DHT22;12775;46.994;15.498;2024-01-27T08:18:40;7.60;59.90
1988;DHT22;12775;46.994;15.498;2024-01-27T08:21:08;7.60;60.20
1988;DHT22;12775;46.994;15.498;2024-01-27T08:23:35;7.50;61.40
1988;DHT22;12775;46.994;15.498;2024-01-27T08:26:02;7.60;61.30
1988;DHT22;12775;46.994;15.498;2024-01-27T08:28:29;7.60;61.70
1988;DHT22;12775;46.994;15.498;2024-01-27T08:30:56;7.60;61.70
1988;DHT22;12775;46.994;15.498;2024-01-27T08:33:22;7.60;60.70
1988;DHT22;12775;46.994;15.498;2024-01-27T08:35:49;7.70;60.40
1988;DHT22;12775;46.994;15.498;2024-01-27T08:38:16;7.80;60.40
1988;DHT22;12775;46.994;15.498;2024-01-27T08:40:42;7.80;60.20
1988;DHT22;12775;46.994;15.498;2024-01-27T08:43:10;7.90;59.40
1988;DHT22;12775;46.994;15.498;2024-01-27T08:45:37;7.90;59.20
1988;DHT22;12775;46.994;15.498;2024-01-27T08:48:05;8.00;60.30
1988;DHT22;12775;46.994;15.498;2024-01-27T08:50:33;8.10;61.00
1988;DHT22;12775;46.994;15.498;2024-01-27T08:53:00;8.10;61.00
1988;DHT22;12775;46.994;15.498;2024-01-27T08:55:27;8.10;59.70
1988;DHT22;12775;46.994;15.498;2024-01-27T08:57:55;8.20;60.20
1988;DHT22;12775;46.994;15.498;2024-01-27T09:00:22;8.30;60.20
1988;DHT22;12775;46.994;15.498;2024-01-27T09:02:49;8.20;60.00
1988;DHT22;12775;46.994;15.498;2024-01-27T09:05:16;8.30;58.80
1988;DHT22;12775;46.994;15.498;2024-01-27T09:07:43;8.30;58.30
1988;DHT22;12775;46.994;15.498;2024-01-27T09:10:12;8.40;59.60
1988;DHT22;12775;46.994;15.498;2024-01-27T09:12:39;8.40;58.20
1988;DHT22;12775;46.994;15.498;2024-01-27T09:15:07;8.40;58.50
1988;DHT22;12775;46.994;15.498;2024-01-27T09:17:34;8.40;58.20
1988;DHT22;12775;46.994;15.498;2024-01-27T09:20:02;8.50;60.00
1988;DHT22;12775;46.994;15.498;2024-01-27T09:22:29;8.50;60.80
1988;DHT22;12775;46.994;15.498;2024-01-27T09:24:56;8.50;60.80
1988;DHT22;12775;46.994;15.498;2024-01-27T09:27:24;8.60;60.10
1988;DHT22;12775;46.994;15.498;2024-01-27T09:29:51;8.70;58.90
1988;DHT22;12775;46.994;15.498;2024-01-27T09:32:22;8.80;58.80
1988;DHT22;12775;46.994;15.498;2024-01-27T09:34:49;8.80;56.50
1988;DHT22;12775;46.994;15.498;2024-01-27T09:37:16;8.80;56.50
1988;DHT22;12775;46.994;15.498;2024-01-27T09:39:42;8.90;58.30
1988;DHT22;12775;46.994;15.498;2024-01-27T09:42:09;9.00;58.60
1988;DHT22;12775;46.994;15.498;2024-01-27T09:44:36;9.00;56.90
1988;DHT22;12775;46.994;15.498;2024-01-27T09:47:02;9.10;56.50
1988;DHT22;12775;46.994;15.498;2024-01-27T09:49:29;9.10;56.00
1988;DHT22;12775;46.994;15.498;2024-01-27T09:51:56;9.40;56.10
1988;DHT22;12775;46.994;15.498;2024-01-27T09:54:24;9.50;55.60
1988;DHT22;12775;46.994;15.498;2024-01-27T09:56:51;9.50;51.40
1988;DHT22;12775;46.994;15.498;2024-01-27T09:59:18;9.60;52.20
1988;DHT22;12775;46.994;15.498;2024-01-27T10:01:45;9.60;52.20
1988;DHT22;12775;46.994;15.498;2024-01-27T10:04:12;9.70;50.30
1988;DHT22;12775;46.994;15.498;2024-01-27T10:06:40;10.00;50.40
1988;DHT22;12775;46.994;15.498;2024-01-27T10:09:07;9.90;51.20
1988;DHT22;12775;46.994;15.498;2024-01-27T10:11:33;10.00;49.40
1988;DHT22;12775;46.994;15.498;2024-01-27T10:14:01;10.30;50.40
1988;DHT22;12775;46.994;15.498;2024-01-27T10:16:27;10.30;50.40
1988;DHT22;12775;46.994;15.498;2024-01-27T10:18:59;10.60;53.60
1988;DHT22;12775;46.994;15.498;2024-01-27T10:21:25;10.50;53.60
1988;DHT22;12775;46.994;15.498;2024-01-27T10:23:52;10.70;54.40
1988;DHT22;12775;46.994;15.498;2024-01-27T10:26:20;10.90;50.90
1988;DHT22;12775;46.994;15.498;2024-01-27T10:28:54;10.90;50.80
1988;DHT22;12775;46.994;15.498;2024-01-27T10:31:19;11.00;52.50
1988;DHT22;12775;46.994;15.498;2024-01-27T10:33:51;11.10;48.50
1988;DHT22;12775;46.994;15.498;2024-01-27T10:36:18;11.30;47.60
1988;DHT22;12775;46.994;15.498;2024-01-27T10:38:46;11.30;46.90
1988;DHT22;12775;46.994;15.498;2024-01-27T10:41:12;11.30;46.90
1988;DHT22;12775;46.994;15.498;2024-01-27T10:43:39;11.40;47.30
1988;DHT22;12775;46.994;15.498;2024-01-27T10:46:06;11.50;43.70
1988;DHT22;12775;46.994;15.498;2024-01-27T10:48:35;11.50;45.00
1988;DHT22;12775;46.994;15.498;2024-01-27T10:51:07;11.60;47.00
1988;DHT22;12775;46.994;15.498;2024-01-27T10:53:31;11.90;50.60
1988;DHT22;12775;46.994;15.498;2024-01-27T10:55:59;12.00;50.20
1988;DHT22;12775;46.994;15.498;2024-01-27T10:58:26;12.10;53.60
1988;DHT22;12775;46.994;15.498;2024-01-27T11:00:53;12.20;53.50
1988;DHT22;12775;46.994;15.498;2024-01-27T11:03:21;12.30;52.00
1988;DHT22;12775;46.994;15.498;2024-01-27T11:05:48;12.40;51.80
1988;DHT22;12775;46.994;15.498;2024-01-27T11:08:15;12.50;48.00
1988;DHT22;12775;46.994;15.498;2024-01-27T11:10:43;12.60;48.10
1988;DHT22;12775;46.994;15.498;2024-01-27T11:13:10;12.70;42.00
1988;DHT22;12775;46.994;15.498;2024-01-27T11:15:38;12.70;44.70
1988;DHT22;12775;46.994;15.498;2024-01-27T11:18:06;12.70;44.30
1988;DHT22;12775;46.994;15.498;2024-01-27T11:20:33;12.80;47.80
1988;DHT22;12775;46.994;15.498;2024-01-27T11:23:10;12.80;47.80
1988;DHT22;12775;46.994;15.498;2024-01-27T11:25:36;13.00;45.50
1988;DHT22;12775;46.994;15.498;2024-01-27T11:30:35;13.10;39.90
1988;DHT22;12775;46.994;15.498;2024-01-27T11:33:02;13.10;46.60
1988;DHT22;12775;46.994;15.498;2024-01-27T11:35:28;13.20;47.30
1988;DHT22;12775;46.994;15.498;2024-01-27T11:37:56;13.20;45.40
1988;DHT22;12775;46.994;15.498;2024-01-27T11:40:23;13.20;48.80
1988;DHT22;12775;46.994;15.498;2024-01-27T11:42:55;13.20;48.80
1988;DHT22;12775;46.994;15.498;2024-01-27T11:45:21;13.10;42.80
1988;DHT22;12775;46.994;15.498;2024-01-27T11:47:48;13.10;47.80
1988;DHT22;12775;46.994;15.498;2024-01-27T11:50:17;13.10;43.90
1988;DHT22;12775;46.994;15.498;2024-01-27T11:52:45;12.90;42.90
1988;DHT22;12775;46.994;15.498;2024-01-27T11:55:13;12.90;41.90
1988;DHT22;12775;46.994;15.498;2024-01-27T11:57:41;12.80;37.00
1988;DHT22;12775;46.994;15.498;2024-01-27T12:00:08;12.70;41.10
1988;DHT22;12775;46.994;15.498;2024-01-27T12:02:37;12.60;42.70
1988;DHT22;12775;46.994;15.498;2024-01-27T12:05:04;12.60;42.70
1988;DHT22;12775;46.994;15.498;2024-01-27T12:07:31;12.50;39.20
1988;DHT22;12775;46.994;15.498;2024-01-27T12:09:58;12.40;39.10
1988;DHT22;12775;46.994;15.498;2024-01-27T12:12:25;12.50;45.30
1988;DHT22;12775;46.994;15.498;2024-01-27T12:14:52;12.40;42.80
1988;DHT22;12775;46.994;15.498;2024-01-27T12:17:19;12.40;46.90
1988;DHT22;12775;46.994;15.498;2024-01-27T12:19:49;12.40;45.50
1988;DHT22;12775;46.994;15.498;2024-01-27T12:22:28;12.30;43.40
1988;DHT22;12775;46.994;15.498;2024-01-27T12:24:55;12.40;45.30
1988;DHT22;12775;46.994;15.498;2024-01-27T12:27:22;12.30;42.70
1988;DHT22;12775;46.994;15.498;2024-01-27T12:29:50;12.30;45.90
1988;DHT22;12775;46.994;15.498;2024-01-27T12:32:17;12.40;43.50
1988;DHT22;12775;46.994;15.498;2024-01-27T12:34:44;12.40;46.30
1988;DHT22;12775;46.994;15.498;2024-01-27T12:37:12;12.50;45.70
1988;DHT22;12775;46.994;15.498;2024-01-27T12:39:43;12.40;43.20
1988;DHT22;12775;46.994;15.498;2024-01-27T12:42:10;12.30;43.40
1988;DHT22;12775;46.994;15.498;2024-01-27T12:44:37;12.40;41.10
1988;DHT22;12775;46.994;15.498;2024-01-27T12:47:04;12.30;41.10
1988;DHT22;12775;46.994;15.498;2024-01-27T12:49:31;12.40;41.50
1988;DHT22;12775;46.994;15.498;2024-01-27T12:51:57;12.40;44.40
1988;DHT22;12775;46.994;15.498;2024-01-27T12:54:24;12.40;42.80
1988;DHT22;12775;46.994;15.498;2024-01-27T12:56:51;12.40;41.80
1988;DHT22;12775;46.994;15.498;2024-01-27T12:59:19;12.40;40.50
1988;DHT22;12775;46.994;15.498;2024-01-27T13:01:46;12.40;42.10
1988;DHT22;12775;46.994;15.498;2024-01-27T13:04:13;12.50;45.80
1988;DHT22;12775;46.994;15.498;2024-01-27T13:06:41;12.50;45.00
1988;DHT22;12775;46.994;15.498;2024-01-27T13:09:08;12.50;45.10
1988;DHT22;12775;46.994;15.498;2024-01-27T13:11:38;12.30;41.00
1988;DHT22;12775;46.994;15.498;2024-01-27T13:14:05;12.20;42.30
1988;DHT22;12775;46.994;15.498;2024-01-27T13:16:33;12.00;39.70
1988;DHT22;12775;46.994;15.498;2024-01-27T13:19:00;11.90;41.70
1988;DHT22;12775;46.994;15.498;2024-01-27T13:21:27;11.90;43.30
1988;DHT22;12775;46.994;15.498;2024-01-27T13:23:55;11.70;42.40
1988;DHT22;12775;46.994;15.498;2024-01-27T13:26:22;11.70;42.10
1988;DHT22;12775;46.994;15.498;2024-01-27T13:28:49;11.60;42.00
1988;DHT22;12775;46.994;15.498;2024-01-27T13:31:16;11.60;41.90
1988;DHT22;12775;46.994;15.498;2024-01-27T13:33:43;11.40;42.60
1988;DHT22;12775;46.994;15.498;2024-01-27T13:36:09;11.30;41.10
1988;DHT22;12775;46.994;15.498;2024-01-27T13:38:36;11.30;43.20
1988;DHT22;12775;46.994;15.498;2024-01-27T13:41:03;11.00;42.50
1988;DHT22;12775;46.994;15.498;2024-01-27T13:43:31;11.00;41.10
1988;DHT22;12775;46.994;15.498;2024-01-27T13:45:58;10.90;42.70
1988;DHT22;12775;46.994;15.498;2024-01-27T13:48:25;10.90;42.10
1988;DHT22;12775;46.994;15.498;2024-01-27T13:50:53;10.90;43.00
1988;DHT22;12775;46.994;15.498;2024-01-27T13:53:21;10.80;43.50
1988;DHT22;12775;46.994;15.498;2024-01-27T13:55:48;10.80;42.90
1988;DHT22;12775;46.994;15.498;2024-01-27T13:58:17;10.80;44.00
1988;DHT22;12775;46.994;15.498;2024-01-27T14:00:43;10.70;42.00
1988;DHT22;12775;46.994;15.498;2024-01-27T14:03:10;10.70;42.00
1988;DHT22;12775;46.994;15.498;2024-01-27T14:05:37;10.60;42.60
1988;DHT22;12775;46.994;15.498;2024-01-27T14:08:05;10.50;42.30
1988;DHT22;12775;46.994;15.498;2024-01-27T14:10:33;10.50;42.80
1988;DHT22;12775;46.994;15.498;2024-01-27T14:12:59;10.50;42.80
1988;DHT22;12775;46.994;15.498;2024-01-27T14:15:26;10.50;43.70
1988;DHT22;12775;46.994;15.498;2024-01-27T14:17:52;10.40;42.80
1988;DHT22;12775;46.994;15.498;2024-01-27T14:20:19;10.50;43.10
1988;DHT22;12775;46.994;15.498;2024-01-27T14:22:46;10.40;42.70
1988;DHT22;12775;46.994;15.498;2024-01-27T14:25:14;10.30;42.70
1988;DHT22;12775;46.994;15.498;2024-01-27T14:27:42;10.40;41.90
1988;DHT22;12775;46.994;15.498;2024-01-27T14:30:09;10.40;42.00
1988;DHT22;12775;46.994;15.498;2024-01-27T14:32:36;10.40;42.00
1988;DHT22;12775;46.994;15.498;2024-01-27T14:35:03;10.40;40.20
1988;DHT22;12775;46.994;15.498;2024-01-27T14:37:30;10.40;38.90
1988;DHT22;12775;46.994;15.498;2024-01-27T14:39:56;10.50;40.80
1988;DHT22;12775;46.994;15.498;2024-01-27T14:42:24;10.40;40.80
1988;DHT22;12775;46.994;15.498;2024-01-27T14:44:51;10.50;41.40
1988;DHT22;12775;46.994;15.498;2024-01-27T14:47:18;10.50;40.30
1988;DHT22;12775;46.994;15.498;2024-01-27T14:49:45;10.40;40.30
1988;DHT22;12775;46.994;15.498;2024-01-27T14:52:11;10.50;40.00
1988;DHT22;12775;46.994;15.498;2024-01-27T14:54:38;10.50;37.70
1988;DHT22;12775;46.994;15.498;2024-01-27T14:57:05;10.50;37.00
1988;DHT22;12775;46.994;15.498;2024-01-27T14:59:32;10.60;42.00
1988;DHT22;12775;46.994;15.498;2024-01-27T15:01:59;10.60;39.20
1988;DHT22;12775;46.994;15.498;2024-01-27T15:04:26;10.60;39.20
1988;DHT22;12775;46.994;15.498;2024-01-27T15:06:54;10.60;38.00
1988;DHT22;12775;46.994;15.498;2024-01-27T15:09:21;10.50;39.40
1988;DHT22;12775;46.994;15.498;2024-01-27T15:11:48;10.50;37.90
1988;DHT22;12775;46.994;15.498;2024-01-27T15:14:15;10.40;37.70
1988;DHT22;12775;46.994;15.498;2024-01-27T15:16:42;10.40;37.70
1988;DHT22;12775;46.994;15.498;2024-01-27T15:19:10;10.40;39.00
1988;DHT22;12775;46.994;15.498;2024-01-27T15:21:37;10.20;37.50
1988;DHT22;12775;46.994;15.498;2024-01-27T15:24:04;10.20;37.50
1988;DHT22;12775;46.994;15.498;2024-01-27T15:26:30;10.20;39.30
1988;DHT22;12775;46.994;15.498;2024-01-27T15:28:58;10.30;42.80
1988;DHT22;12775;46.994;15.498;2024-01-27T15:31:24;10.30;42.80
1988;DHT22;12775;46.994;15.498;2024-01-27T15:33:52;10.40;40.70
1988;DHT22;12775;46.994;15.498;2024-01-27T15:36:19;10.40;38.50
1988;DHT22;12775;46.994;15.498;2024-01-27T15:38:46;10.30;38.40
1988;DHT22;12775;46.994;15.498;2024-01-27T15:41:12;10.30;37.50
1988;DHT22;12775;46.994;15.498;2024-01-27T15:43:39;10.30;39.30